createdAt,value
2023-02-06T00:02:39.672Z,14.80
2023-02-06T00:07:39.628Z,16.79
2023-02-06T00:12:39.536Z,20.10
2023-02-06T00:17:39.467Z,17.50
2023-02-06T00:22:39.411Z,15.00
2023-02-06T00:27:39.337Z,15.80
2023-02-06T00:32:39.308Z,18.10
2023-02-06T00:37:39.211Z,14.39
2023-02-06T00:42:39.163Z,16.50
2023-02-06T00:47:39.078Z,15.89
2023-02-06T00:52:39.032Z,12.80
2023-02-06T00:57:38.946Z,11.50
2023-02-06T01:02:38.937Z,13.80
2023-02-06T01:07:38.848Z,15.60
2023-02-06T01:12:38.758Z,16.20
2023-02-06T01:17:38.677Z,14.39
2023-02-06T01:22:38.624Z,13.89
2023-02-06T01:27:38.579Z,15.80
2023-02-06T01:32:38.533Z,15.80
2023-02-06T01:37:38.408Z,13.80
2023-02-06T01:42:38.353Z,14.80
2023-02-06T01:47:38.277Z,15.39
2023-02-06T01:52:38.219Z,16.00
2023-02-06T01:57:38.158Z,15.19
2023-02-06T02:02:38.103Z,14.00
2023-02-06T02:07:38.019Z,14.00
2023-02-06T02:12:37.978Z,14.69
2023-02-06T02:17:37.896Z,13.89
2023-02-06T02:22:37.851Z,16.60
2023-02-06T02:27:37.769Z,12.69
2023-02-06T02:32:37.721Z,17.60
2023-02-06T02:37:37.664Z,15.89
2023-02-06T02:42:37.577Z,20.20
2023-02-06T02:47:37.519Z,18.60
2023-02-06T02:52:37.442Z,17.89
2023-02-06T02:57:37.386Z,21.89
2023-02-06T03:02:37.319Z,20.60
2023-02-06T03:07:37.255Z,18.50
2023-02-06T03:12:37.182Z,18.39
2023-02-06T03:17:37.135Z,27.60
2023-02-06T03:22:37.054Z,19.70
2023-02-06T03:27:37.012Z,18.00
2023-02-06T03:32:36.926Z,16.89
2023-02-06T03:37:36.881Z,14.00
2023-02-06T03:42:36.798Z,14.39
2023-02-06T03:47:36.757Z,21.60
2023-02-06T03:52:36.667Z,16.89
2023-02-06T03:57:36.615Z,15.10
2023-02-06T04:02:36.575Z,16.89
2023-02-06T04:07:36.484Z,18.29
2023-02-06T04:12:36.416Z,15.80
2023-02-06T04:17:53.651Z,18.20
2023-02-06T04:22:37.313Z,15.50
2023-02-06T04:27:36.230Z,15.60
2023-02-06T04:32:36.156Z,22.20
2023-02-06T04:37:36.108Z,16.79
2023-02-06T04:42:36.037Z,17.70
2023-02-06T04:47:35.972Z,18.89
2023-02-06T04:52:35.912Z,20.89
2023-02-06T04:57:35.845Z,19.29
2023-02-06T05:02:35.793Z,15.10
2023-02-06T05:07:35.713Z,19.20
2023-02-06T05:12:35.639Z,19.70
2023-02-06T05:17:35.576Z,15.30
2023-02-06T05:22:35.518Z,16.29
2023-02-06T05:27:35.436Z,16.00
2023-02-06T05:32:35.386Z,16.29
2023-02-06T05:37:35.308Z,18.39
2023-02-06T05:42:35.259Z,22.79
2023-02-06T05:47:35.178Z,22.60
2023-02-06T05:52:35.130Z,18.50
2023-02-06T05:57:35.049Z,19.60
2023-02-06T06:02:34.998Z,19.60
2023-02-06T06:07:34.945Z,40.90
2023-02-06T06:12:34.865Z,26.10
2023-02-06T06:17:34.792Z,19.70
2023-02-06T06:22:34.737Z,21.79
2023-02-06T06:27:34.665Z,24.29
2023-02-06T06:32:34.604Z,21.70
2023-02-06T06:37:34.531Z,21.89
2023-02-06T06:42:34.485Z,23.89
2023-02-06T06:47:34.401Z,20.29
2023-02-06T06:52:34.356Z,21.60
2023-02-06T06:57:34.275Z,21.00
2023-02-06T07:02:34.234Z,23.89
2023-02-06T07:07:34.218Z,20.20
2023-02-06T07:12:34.095Z,24.50
2023-02-06T07:17:34.012Z,19.00
2023-02-06T07:22:33.957Z,20.60
2023-02-06T07:27:33.886Z,23.00
2023-02-06T07:32:33.825Z,26.79
2023-02-06T07:37:33.753Z,22.89
2023-02-06T07:42:33.696Z,21.79
2023-02-06T07:47:33.626Z,21.00
2023-02-06T07:52:33.564Z,19.39
2023-02-06T07:57:33.491Z,26.39
2023-02-06T08:02:33.436Z,24.00
2023-02-06T08:07:33.360Z,21.50
2023-02-06T08:12:33.304Z,22.70
2023-02-06T08:17:33.229Z,24.70
2023-02-06T08:22:33.197Z,26.00
2023-02-06T08:27:33.112Z,25.20
2023-02-06T08:32:33.042Z,25.10
2023-02-06T08:37:32.975Z,22.60
2023-02-06T08:42:32.919Z,26.10
2023-02-06T08:47:32.839Z,23.79
2023-02-06T08:52:32.793Z,30.89
2023-02-06T08:57:32.708Z,27.10
2023-02-06T09:02:32.705Z,23.50
2023-02-06T09:07:32.591Z,27.70
2023-02-06T09:12:32.529Z,28.10
2023-02-06T09:17:32.449Z,29.39
2023-02-06T09:22:32.388Z,26.20
2023-02-06T09:27:32.310Z,29.60
2023-02-06T09:32:32.261Z,33.20
2023-02-06T09:37:32.187Z,29.20
2023-02-06T09:42:32.127Z,26.60
2023-02-06T09:47:32.054Z,30.70
2023-02-06T09:52:32.005Z,30.50
2023-02-06T09:57:31.928Z,26.89
2023-02-06T10:02:31.879Z,22.70
2023-02-06T10:07:31.799Z,20.89
2023-02-06T10:12:31.753Z,17.79
2023-02-06T10:17:31.677Z,28.20
2023-02-06T10:22:31.630Z,20.70
2023-02-06T10:27:31.550Z,16.60
2023-02-06T10:32:31.500Z,20.79
2023-02-06T10:37:31.433Z,16.29
2023-02-06T10:42:31.368Z,15.89
2023-02-06T10:47:31.306Z,16.70
2023-02-06T10:52:31.241Z,13.69
2023-02-06T10:57:31.183Z,18.20
2023-02-06T11:02:31.305Z,12.39
2023-02-06T11:07:31.053Z,13.30
2023-02-06T11:12:30.992Z,11.39
2023-02-06T11:17:30.911Z,14.69
2023-02-06T11:22:33.348Z,13.50
2023-02-06T11:27:30.784Z,12.10
2023-02-06T11:32:30.754Z,13.80
2023-02-06T11:37:32.301Z,11.80
2023-02-06T11:42:30.601Z,10.89
2023-02-06T11:47:31.946Z,13.60
2023-02-06T11:52:30.473Z,14.89
2023-02-06T11:57:30.411Z,10.69
2023-02-06T12:02:30.389Z,11.39
2023-02-06T12:07:30.367Z,11.69
2023-02-06T12:12:30.258Z,11.30
2023-02-06T12:17:30.157Z,10.39
2023-02-06T12:22:30.089Z,13.00
2023-02-06T12:27:30.065Z,12.39
2023-02-06T12:32:29.958Z,11.60
2023-02-06T12:37:29.886Z,12.10
2023-02-06T12:42:29.831Z,11.39
2023-02-06T12:47:29.755Z,11.30
2023-02-06T12:52:29.737Z,8.89
2023-02-06T12:57:29.622Z,14.10
2023-02-06T13:02:29.729Z,12.30
2023-02-06T13:07:30.829Z,10.30
2023-02-06T13:12:29.445Z,9.69
2023-02-06T13:17:29.380Z,8.10
2023-02-06T13:22:29.315Z,9.50
2023-02-06T13:27:29.253Z,10.50
2023-02-06T13:32:29.200Z,10.60
2023-02-06T13:37:29.141Z,16.70
2023-02-06T13:42:29.057Z,7.40
2023-02-06T13:47:29.001Z,9.10
2023-02-06T13:52:28.927Z,7.40
2023-02-06T13:57:28.871Z,9.89
2023-02-06T14:02:28.826Z,10.39
2023-02-06T14:07:28.736Z,9.30
2023-02-06T14:12:28.664Z,6.40
2023-02-06T14:17:28.596Z,10.50
2023-02-06T14:22:28.557Z,7.50
2023-02-06T14:27:28.482Z,8.19
2023-02-06T14:32:28.412Z,9.39
2023-02-06T14:37:28.347Z,8.19
2023-02-06T14:42:28.281Z,9.00
2023-02-06T14:47:28.224Z,12.89
2023-02-06T14:52:28.151Z,10.69
2023-02-06T14:57:28.094Z,11.60
2023-02-06T15:02:28.019Z,10.39
2023-02-06T15:07:27.958Z,11.30
2023-02-06T15:12:27.893Z,11.89
2023-02-06T15:17:27.817Z,11.19
2023-02-06T15:22:27.780Z,12.50
2023-02-06T15:27:27.689Z,12.69
2023-02-06T15:32:27.798Z,12.50
2023-02-06T15:37:27.709Z,10.89
2023-02-06T15:42:27.505Z,11.50
2023-02-06T15:47:27.438Z,12.30
2023-02-06T15:52:27.374Z,13.19
2023-02-06T15:57:27.301Z,12.69
2023-02-06T16:02:27.257Z,16.10
2023-02-06T16:07:27.171Z,9.60
2023-02-06T16:12:27.126Z,8.89
2023-02-06T16:17:27.040Z,10.39
2023-02-06T16:22:26.983Z,11.89
2023-02-06T16:27:26.913Z,12.10
2023-02-06T16:32:26.853Z,10.39
2023-02-06T16:37:26.783Z,12.89
2023-02-06T16:42:26.732Z,12.50
2023-02-06T16:47:26.654Z,12.00
2023-02-06T16:52:26.596Z,12.69
2023-02-06T16:57:26.513Z,18.39
2023-02-06T17:02:26.477Z,17.89
2023-02-06T17:07:26.384Z,14.10
2023-02-06T17:12:26.338Z,15.00
2023-02-06T17:17:26.253Z,21.60
2023-02-06T17:22:26.201Z,22.60
2023-02-06T17:27:26.128Z,19.50
2023-02-06T17:32:26.083Z,20.20
2023-02-06T17:37:25.998Z,21.50
2023-02-06T17:42:25.955Z,26.00
2023-02-06T17:47:25.867Z,27.10
2023-02-06T17:52:25.809Z,26.60
2023-02-06T17:57:25.737Z,24.60
2023-02-06T18:02:25.729Z,23.29
2023-02-06T18:07:25.715Z,24.29
2023-02-06T18:12:25.559Z,30.60
2023-02-06T18:17:25.477Z,25.70
2023-02-06T18:22:25.429Z,24.20
2023-02-06T18:27:25.347Z,25.20
2023-02-06T18:32:25.297Z,22.10
2023-02-06T18:37:25.214Z,21.00
2023-02-06T18:42:25.172Z,19.89
2023-02-06T18:47:25.083Z,16.79
2023-02-06T18:52:25.035Z,20.89
2023-02-06T18:57:24.949Z,22.60
2023-02-06T19:02:24.903Z,18.39
2023-02-06T19:07:24.826Z,18.70
2023-02-06T19:12:24.778Z,19.60
2023-02-06T19:17:24.695Z,15.60
2023-02-06T19:22:24.650Z,18.39
2023-02-06T19:27:24.573Z,20.00
2023-02-06T19:32:24.513Z,15.19
2023-02-06T19:37:24.441Z,17.20
2023-02-06T19:42:24.380Z,17.29
2023-02-06T19:47:24.309Z,15.80
2023-02-06T19:52:24.247Z,17.60
2023-02-06T19:57:24.178Z,16.29
2023-02-06T20:02:24.130Z,14.80
2023-02-06T20:07:24.044Z,16.20
2023-02-06T20:12:23.997Z,15.80
2023-02-06T20:17:23.935Z,20.50
2023-02-06T20:22:23.892Z,21.79
2023-02-06T20:27:23.786Z,17.20
2023-02-06T20:32:23.738Z,20.79
2023-02-06T20:37:23.660Z,19.50
2023-02-06T20:42:23.598Z,18.89
2023-02-06T20:47:23.522Z,18.29
2023-02-06T20:52:23.462Z,21.60
2023-02-06T20:57:23.404Z,23.89
2023-02-06T21:02:23.390Z,30.60
2023-02-06T21:07:23.258Z,26.89
2023-02-06T21:12:23.299Z,24.50
2023-02-06T21:17:23.179Z,23.29
2023-02-06T21:22:23.321Z,19.79
2023-02-06T21:27:23.247Z,22.70
2023-02-06T21:32:23.342Z,21.20
2023-02-06T21:37:23.267Z,21.60
2023-02-06T21:42:23.260Z,21.39
2023-02-06T21:47:23.335Z,19.79
2023-02-06T21:52:22.681Z,23.29
2023-02-06T21:57:22.616Z,24.50
2023-02-06T22:02:22.552Z,22.00
2023-02-06T22:07:22.493Z,20.70
2023-02-06T22:12:22.420Z,20.20
2023-02-06T22:17:22.356Z,20.89
2023-02-06T22:22:22.299Z,19.00
2023-02-06T22:27:22.230Z,22.89
2023-02-06T22:32:22.215Z,23.39
2023-02-06T22:37:22.148Z,20.50
2023-02-06T22:42:22.027Z,21.10
2023-02-06T22:47:21.960Z,23.29
2023-02-06T22:52:21.895Z,17.79
2023-02-06T22:57:21.824Z,24.39
2023-02-06T23:02:21.844Z,21.89
2023-02-06T23:07:21.753Z,24.00
2023-02-06T23:12:21.647Z,22.39
2023-02-06T23:17:21.642Z,20.29
2023-02-06T23:22:21.610Z,25.20
2023-02-06T23:27:21.461Z,30.29
2023-02-06T23:32:21.395Z,21.89
2023-02-06T23:37:21.333Z,24.10
2023-02-06T23:42:21.263Z,26.70
2023-02-06T23:47:21.200Z,21.00
2023-02-06T23:52:21.136Z,25.79
2023-02-06T23:57:21.084Z,27.20
